SVARTNES current weather conditions

sailwx.info

Wind from 310 at 38 knots

Air temperature -5.0° C
Visibility: greater than 2.7 NM
Dewpoint -6.0° C
Present weather: Light snow showers. Blowing snow.

Last reported at 2020-Jan-22 14:50 UTC.
Time now 2020-Jan-22 15:37 UTC

Location: N 70°20' E 031°03'.
View on Google Maps.

See reports from other nearby stations

  
Tides and Currents Weather Stations Pressure Air Temp Water Temp Dewpoint Dewpoint Depression Visibility Wind Speed Wind Dir Waves Ship Positions
date/time (UTC)wind fromknots sea level pressurealtimeterstation pressurevisibilityair tempwater tempwave heightnotes
2020-Jan-22 14:50 310 38 2.7-5.0 Light snow showers. Blowing snow.
2020-Jan-22 14:20 320 35 3.2-4.0 Blowing snow. Showers in the vicinity.
2020-Jan-22 13:00 320 36 gusting 47 3.2-4.0 Blowing snow. Showers in the vicinity.
2020-Jan-22 12:50 320 34 gusting 44 0.3-4.0 Snow showers. Blowing snow.
2020-Jan-22 10:50 320 35 gusting 44 5.4-5.0
2020-Jan-22 09:50 320 31 gusting 41 3.8 Snow showers. Blowing snow.
2020-Jan-22 08:50 310 34 3.8-6.0 Snow showers. Blowing snow.
2020-Jan-22 07:50 320 38 gusting 48 0.5-5.0 Blowing snow.
2020-Jan-22 06:50 210 31 gusting 40 5.4
2020-Jan-21 20:50 340 20 5.4-1.0 Light low drifting snow.
2020-Jan-21 20:20 340 21 5.4-1.0 Light low drifting snow.
2020-Jan-21 18:50 360 25 5.4-1.0 Light low drifting snow.
2020-Jan-21 18:20 010 20 1.9-0.0 Light snow showers.
2020-Jan-21 17:50 260 14 5.4-1.0 Light snow showers.
2020-Jan-21 17:20 250 18 5.4-1.0 Showers in the vicinity.
2020-Jan-21 16:50 250 20 5.4-1.0 Showers in the vicinity.
2020-Jan-21 16:20 250 20 5.4-1.0 Showers in the vicinity.
2020-Jan-21 15:20 250 21 5.4-2.0
2020-Jan-21 14:50 260 20 5.4-2.0
2020-Jan-21 12:50 270 25 5.4-2.0
2020-Jan-21 10:50 260 25 5.4-2.0
2020-Jan-21 09:50 270 24 5.4-1.0
2020-Jan-21 08:50 270 22 5.4-1.0
2020-Jan-21 07:50 270 21 5.4-1.0
2020-Jan-21 07:20 260 22 5.4-2.0
2020-Jan-20 20:50 200 26 2.7-2.0 Light snow showers. Blowing snow.
2020-Jan-20 20:20 200 22 5.4-2.0 Light low drifting snow.
2020-Jan-20 19:50 200 22 5.4-2.0 Light low drifting snow.
2020-Jan-20 19:20 210 26 5.4-3.0
2020-Jan-20 17:50 210 27 4.3-3.0 Light low drifting snow.
2020-Jan-20 17:20 210 27 3.2-4.0 Light low drifting snow.
2020-Jan-20 16:50 210 27 3.8-4.0 Blowing snow.
2020-Jan-20 16:20 190 25 3.2-5.0 Blowing snow.
2020-Jan-20 15:50 200 24 4.3-4.0 Blowing snow.